sensor_id;sensor_type;location;lat;lon;timestamp;P1;durP1;ratioP1;P2;durP2;ratioP2
56381;SDS011;50261;51.150;4.470;2023-03-20T00:01:11;19.02;;;10.05;;
56381;SDS011;50261;51.150;4.470;2023-03-20T00:03:38;19.08;;;10.63;;
56381;SDS011;50261;51.150;4.470;2023-03-20T00:06:04;15.35;;;10.43;;
56381;SDS011;50261;51.150;4.470;2023-03-20T00:08:30;16.77;;;10.80;;
56381;SDS011;50261;51.150;4.470;2023-03-20T00:10:56;15.10;;;10.68;;
56381;SDS011;50261;51.150;4.470;2023-03-20T00:13:24;14.65;;;10.30;;
56381;SDS011;50261;51.150;4.470;2023-03-20T00:15:50;16.05;;;10.65;;
56381;SDS011;50261;51.150;4.470;2023-03-20T00:18:17;14.30;;;10.13;;
56381;SDS011;50261;51.150;4.470;2023-03-20T00:20:44;14.50;;;9.50;;
56381;SDS011;50261;51.150;4.470;2023-03-20T00:23:10;17.65;;;10.18;;
56381;SDS011;50261;51.150;4.470;2023-03-20T00:25:36;14.00;;;9.60;;
56381;SDS011;50261;51.150;4.470;2023-03-20T00:28:48;17.25;;;9.82;;
56381;SDS011;50261;51.150;4.470;2023-03-20T00:30:50;15.90;;;10.05;;
56381;SDS011;50261;51.150;4.470;2023-03-20T00:33:16;14.68;;;9.63;;
56381;SDS011;50261;51.150;4.470;2023-03-20T00:35:42;15.77;;;9.45;;
56381;SDS011;50261;51.150;4.470;2023-03-20T00:38:07;16.95;;;10.07;;
56381;SDS011;50261;51.150;4.470;2023-03-20T00:40:33;16.05;;;9.82;;
56381;SDS011;50261;51.150;4.470;2023-03-20T00:43:02;17.70;;;10.10;;
56381;SDS011;50261;51.150;4.470;2023-03-20T00:45:29;15.63;;;9.27;;
56381;SDS011;50261;51.150;4.470;2023-03-20T00:47:55;20.65;;;10.95;;
56381;SDS011;50261;51.150;4.470;2023-03-20T00:50:26;14.73;;;9.57;;
56381;SDS011;50261;51.150;4.470;2023-03-20T00:52:54;18.70;;;10.35;;
56381;SDS011;50261;51.150;4.470;2023-03-20T00:55:21;19.75;;;10.73;;
56381;SDS011;50261;51.150;4.470;2023-03-20T00:57:53;16.98;;;10.60;;
56381;SDS011;50261;51.150;4.470;2023-03-20T01:00:24;17.10;;;10.43;;
56381;SDS011;50261;51.150;4.470;2023-03-20T01:02:51;15.50;;;9.88;;
56381;SDS011;50261;51.150;4.470;2023-03-20T01:05:18;15.38;;;10.23;;
56381;SDS011;50261;51.150;4.470;2023-03-20T01:07:44;18.33;;;10.65;;
56381;SDS011;50261;51.150;4.470;2023-03-20T01:10:10;16.23;;;9.30;;
56381;SDS011;50261;51.150;4.470;2023-03-20T01:12:40;19.65;;;10.18;;
56381;SDS011;50261;51.150;4.470;2023-03-20T01:17:44;15.82;;;9.30;;
56381;SDS011;50261;51.150;4.470;2023-03-20T01:20:21;16.92;;;9.13;;
56381;SDS011;50261;51.150;4.470;2023-03-20T01:22:47;13.85;;;8.98;;
56381;SDS011;50261;51.150;4.470;2023-03-20T01:25:13;15.90;;;8.85;;
56381;SDS011;50261;51.150;4.470;2023-03-20T01:27:39;18.25;;;9.80;;
56381;SDS011;50261;51.150;4.470;2023-03-20T01:30:13;15.45;;;9.32;;
56381;SDS011;50261;51.150;4.470;2023-03-20T01:32:40;18.80;;;10.27;;
56381;SDS011;50261;51.150;4.470;2023-03-20T01:35:11;13.80;;;9.80;;
56381;SDS011;50261;51.150;4.470;2023-03-20T01:37:37;12.13;;;8.77;;
56381;SDS011;50261;51.150;4.470;2023-03-20T01:40:03;16.58;;;9.60;;
56381;SDS011;50261;51.150;4.470;2023-03-20T01:42:33;15.15;;;9.70;;
56381;SDS011;50261;51.150;4.470;2023-03-20T01:44:59;18.08;;;9.82;;
56381;SDS011;50261;51.150;4.470;2023-03-20T01:47:26;16.13;;;9.32;;
56381;SDS011;50261;51.150;4.470;2023-03-20T01:52:41;14.88;;;9.20;;
56381;SDS011;50261;51.150;4.470;2023-03-20T01:55:07;16.45;;;9.30;;
56381;SDS011;50261;51.150;4.470;2023-03-20T01:57:33;18.13;;;9.45;;
56381;SDS011;50261;51.150;4.470;2023-03-20T02:00:00;15.13;;;9.00;;
56381;SDS011;50261;51.150;4.470;2023-03-20T02:02:40;13.85;;;9.23;;
56381;SDS011;50261;51.150;4.470;2023-03-20T02:05:07;21.70;;;10.48;;
56381;SDS011;50261;51.150;4.470;2023-03-20T02:07:35;23.38;;;10.55;;
56381;SDS011;50261;51.150;4.470;2023-03-20T02:10:05;17.00;;;9.48;;
56381;SDS011;50261;51.150;4.470;2023-03-20T02:12:48;15.60;;;9.32;;
56381;SDS011;50261;51.150;4.470;2023-03-20T02:15:25;23.88;;;12.05;;
56381;SDS011;50261;51.150;4.470;2023-03-20T02:18:04;14.23;;;9.43;;
56381;SDS011;50261;51.150;4.470;2023-03-20T02:20:32;19.05;;;9.10;;
56381;SDS011;50261;51.150;4.470;2023-03-20T02:28:46;19.52;;;9.55;;
56381;SDS011;50261;51.150;4.470;2023-03-20T02:30:48;18.30;;;8.93;;
56381;SDS011;50261;51.150;4.470;2023-03-20T02:49:00;13.80;;;9.65;;
56381;SDS011;50261;51.150;4.470;2023-03-20T02:54:06;19.20;;;9.52;;
56381;SDS011;50261;51.150;4.470;2023-03-20T02:57:07;19.67;;;10.52;;
56381;SDS011;50261;51.150;4.470;2023-03-20T02:59:32;15.93;;;10.88;;
56381;SDS011;50261;51.150;4.470;2023-03-20T03:02:03;22.38;;;10.80;;
56381;SDS011;50261;51.150;4.470;2023-03-20T03:04:31;18.20;;;9.90;;
56381;SDS011;50261;51.150;4.470;2023-03-20T03:07:00;19.27;;;11.80;;
56381;SDS011;50261;51.150;4.470;2023-03-20T03:09:32;21.33;;;10.10;;
56381;SDS011;50261;51.150;4.470;2023-03-20T03:12:00;23.35;;;11.27;;
56381;SDS011;50261;51.150;4.470;2023-03-20T03:14:33;18.70;;;11.30;;
56381;SDS011;50261;51.150;4.470;2023-03-20T03:17:01;19.08;;;10.45;;
56381;SDS011;50261;51.150;4.470;2023-03-20T03:19:28;20.52;;;11.32;;
56381;SDS011;50261;51.150;4.470;2023-03-20T03:21:54;20.45;;;11.07;;
56381;SDS011;50261;51.150;4.470;2023-03-20T03:24:28;21.25;;;10.00;;
56381;SDS011;50261;51.150;4.470;2023-03-20T03:26:58;20.05;;;10.35;;
56381;SDS011;50261;51.150;4.470;2023-03-20T03:29:24;24.08;;;10.75;;
56381;SDS011;50261;51.150;4.470;2023-03-20T03:31:52;20.50;;;11.25;;
56381;SDS011;50261;51.150;4.470;2023-03-20T03:34:18;18.73;;;10.10;;
56381;SDS011;50261;51.150;4.470;2023-03-20T03:44:15;22.67;;;10.77;;
56381;SDS011;50261;51.150;4.470;2023-03-20T03:46:47;20.60;;;9.95;;
56381;SDS011;50261;51.150;4.470;2023-03-20T03:49:20;20.98;;;10.85;;
56381;SDS011;50261;51.150;4.470;2023-03-20T03:51:48;18.80;;;10.07;;
56381;SDS011;50261;51.150;4.470;2023-03-20T03:54:21;20.23;;;10.93;;
56381;SDS011;50261;51.150;4.470;2023-03-20T03:57:28;25.02;;;12.18;;
56381;SDS011;50261;51.150;4.470;2023-03-20T03:59:56;25.67;;;11.30;;
56381;SDS011;50261;51.150;4.470;2023-03-20T04:02:22;26.00;;;10.98;;
56381;SDS011;50261;51.150;4.470;2023-03-20T04:04:50;24.17;;;11.30;;
56381;SDS011;50261;51.150;4.470;2023-03-20T04:07:17;21.88;;;10.27;;
56381;SDS011;50261;51.150;4.470;2023-03-20T04:09:43;20.75;;;9.20;;
56381;SDS011;50261;51.150;4.470;2023-03-20T04:14:53;20.40;;;10.18;;
56381;SDS011;50261;51.150;4.470;2023-03-20T04:17:22;21.75;;;10.60;;
56381;SDS011;50261;51.150;4.470;2023-03-20T04:19:47;18.02;;;9.98;;
56381;SDS011;50261;51.150;4.470;2023-03-20T04:22:13;19.70;;;10.07;;
56381;SDS011;50261;51.150;4.470;2023-03-20T04:24:39;20.75;;;10.95;;
56381;SDS011;50261;51.150;4.470;2023-03-20T04:27:04;21.40;;;10.52;;
56381;SDS011;50261;51.150;4.470;2023-03-20T04:29:30;26.83;;;10.57;;
56381;SDS011;50261;51.150;4.470;2023-03-20T04:32:12;25.50;;;9.98;;
56381;SDS011;50261;51.150;4.470;2023-03-20T04:34:56;18.48;;;9.52;;
56381;SDS011;50261;51.150;4.470;2023-03-20T04:37:27;19.60;;;10.30;;
56381;SDS011;50261;51.150;4.470;2023-03-20T04:40:03;23.77;;;10.43;;
56381;SDS011;50261;51.150;4.470;2023-03-20T04:42:29;19.55;;;10.20;;
56381;SDS011;50261;51.150;4.470;2023-03-20T04:44:59;23.23;;;10.40;;
56381;SDS011;50261;51.150;4.470;2023-03-20T04:47:27;25.13;;;9.20;;
56381;SDS011;50261;51.150;4.470;2023-03-20T04:49:53;25.70;;;10.48;;
56381;SDS011;50261;51.150;4.470;2023-03-20T04:52:19;23.58;;;8.73;;
56381;SDS011;50261;51.150;4.470;2023-03-20T04:54:44;17.23;;;9.88;;
56381;SDS011;50261;51.150;4.470;2023-03-20T04:57:10;21.55;;;10.73;;
56381;SDS011;50261;51.150;4.470;2023-03-20T04:59:37;26.48;;;9.98;;
56381;SDS011;50261;51.150;4.470;2023-03-20T05:02:03;23.83;;;9.93;;
56381;SDS011;50261;51.150;4.470;2023-03-20T05:04:28;21.42;;;9.35;;
56381;SDS011;50261;51.150;4.470;2023-03-20T05:06:54;20.02;;;9.00;;
56381;SDS011;50261;51.150;4.470;2023-03-20T05:09:25;20.95;;;10.13;;
56381;SDS011;50261;51.150;4.470;2023-03-20T05:11:52;21.45;;;10.32;;
56381;SDS011;50261;51.150;4.470;2023-03-20T05:14:36;25.67;;;10.80;;
56381;SDS011;50261;51.150;4.470;2023-03-20T05:17:20;21.83;;;9.55;;
56381;SDS011;50261;51.150;4.470;2023-03-20T05:20:10;19.63;;;9.45;;
56381;SDS011;50261;51.150;4.470;2023-03-20T05:22:53;22.25;;;9.80;;
56381;SDS011;50261;51.150;4.470;2023-03-20T05:25:37;22.27;;;9.73;;
56381;SDS011;50261;51.150;4.470;2023-03-20T05:28:35;28.67;;;10.27;;
56381;SDS011;50261;51.150;4.470;2023-03-20T05:31:29;22.52;;;9.13;;
56381;SDS011;50261;51.150;4.470;2023-03-20T05:34:04;22.27;;;8.80;;
56381;SDS011;50261;51.150;4.470;2023-03-20T05:37:05;22.92;;;9.02;;
56381;SDS011;50261;51.150;4.470;2023-03-20T05:39:54;24.98;;;9.05;;
56381;SDS011;50261;51.150;4.470;2023-03-20T05:42:43;20.30;;;8.27;;
56381;SDS011;50261;51.150;4.470;2023-03-20T05:45:36;16.38;;;8.02;;
56381;SDS011;50261;51.150;4.470;2023-03-20T05:48:24;22.42;;;8.13;;
56381;SDS011;50261;51.150;4.470;2023-03-20T05:51:09;18.45;;;7.72;;
56381;SDS011;50261;51.150;4.470;2023-03-20T05:54:07;22.92;;;7.88;;
56381;SDS011;50261;51.150;4.470;2023-03-20T05:56:49;17.80;;;7.75;;
56381;SDS011;50261;51.150;4.470;2023-03-20T05:59:41;14.43;;;7.35;;
56381;SDS011;50261;51.150;4.470;2023-03-20T06:02:25;16.65;;;7.65;;
56381;SDS011;50261;51.150;4.470;2023-03-20T06:05:01;21.40;;;8.18;;
56381;SDS011;50261;51.150;4.470;2023-03-20T06:07:32;18.27;;;7.55;;
56381;SDS011;50261;51.150;4.470;2023-03-20T06:10:02;18.10;;;8.13;;
56381;SDS011;50261;51.150;4.470;2023-03-20T06:12:29;21.92;;;7.88;;
56381;SDS011;50261;51.150;4.470;2023-03-20T06:14:55;23.45;;;8.63;;
56381;SDS011;50261;51.150;4.470;2023-03-20T06:17:21;18.33;;;8.25;;
56381;SDS011;50261;51.150;4.470;2023-03-20T06:19:51;20.67;;;8.02;;
56381;SDS011;50261;51.150;4.470;2023-03-20T06:22:17;20.52;;;8.15;;
56381;SDS011;50261;51.150;4.470;2023-03-20T06:24:43;21.30;;;8.57;;
56381;SDS011;50261;51.150;4.470;2023-03-20T06:27:10;18.85;;;7.72;;
56381;SDS011;50261;51.150;4.470;2023-03-20T06:29:37;18.65;;;8.32;;
56381;SDS011;50261;51.150;4.470;2023-03-20T06:32:11;20.65;;;7.65;;
56381;SDS011;50261;51.150;4.470;2023-03-20T06:34:40;15.80;;;7.53;;
56381;SDS011;50261;51.150;4.470;2023-03-20T06:37:06;18.27;;;7.20;;
56381;SDS011;50261;51.150;4.470;2023-03-20T06:39:32;17.85;;;7.53;;
56381;SDS011;50261;51.150;4.470;2023-03-20T06:41:58;16.27;;;7.03;;
56381;SDS011;50261;51.150;4.470;2023-03-20T06:44:24;17.65;;;7.63;;
56381;SDS011;50261;51.150;4.470;2023-03-20T06:47:00;21.67;;;7.38;;
56381;SDS011;50261;51.150;4.470;2023-03-20T06:49:26;19.15;;;6.97;;
56381;SDS011;50261;51.150;4.470;2023-03-20T06:51:52;22.02;;;7.80;;
56381;SDS011;50261;51.150;4.470;2023-03-20T06:54:23;14.75;;;6.72;;
56381;SDS011;50261;51.150;4.470;2023-03-20T06:56:49;15.82;;;7.35;;
56381;SDS011;50261;51.150;4.470;2023-03-20T06:59:15;16.73;;;6.53;;
56381;SDS011;50261;51.150;4.470;2023-03-20T07:01:41;18.85;;;6.93;;
56381;SDS011;50261;51.150;4.470;2023-03-20T07:04:07;18.25;;;6.70;;
56381;SDS011;50261;51.150;4.470;2023-03-20T07:06:39;14.00;;;4.53;;
56381;SDS011;50261;51.150;4.470;2023-03-20T07:09:05;20.10;;;6.75;;
56381;SDS011;50261;51.150;4.470;2023-03-20T07:11:32;19.05;;;7.22;;
56381;SDS011;50261;51.150;4.470;2023-03-20T07:14:00;22.17;;;7.28;;
56381;SDS011;50261;51.150;4.470;2023-03-20T07:16:41;10.88;;;5.05;;
56381;SDS011;50261;51.150;4.470;2023-03-20T07:19:06;19.73;;;6.70;;
56381;SDS011;50261;51.150;4.470;2023-03-20T07:21:34;13.55;;;6.50;;
56381;SDS011;50261;51.150;4.470;2023-03-20T07:24:00;19.20;;;6.78;;
56381;SDS011;50261;51.150;4.470;2023-03-20T07:26:25;17.52;;;7.72;;
56381;SDS011;50261;51.150;4.470;2023-03-20T07:28:51;16.70;;;5.63;;
56381;SDS011;50261;51.150;4.470;2023-03-20T07:31:23;19.20;;;6.25;;
56381;SDS011;50261;51.150;4.470;2023-03-20T07:33:56;15.82;;;5.75;;
56381;SDS011;50261;51.150;4.470;2023-03-20T07:36:21;17.52;;;5.60;;
56381;SDS011;50261;51.150;4.470;2023-03-20T07:38:47;15.60;;;5.45;;
56381;SDS011;50261;51.150;4.470;2023-03-20T07:41:13;17.95;;;5.55;;
56381;SDS011;50261;51.150;4.470;2023-03-20T07:43:44;17.70;;;6.28;;
56381;SDS011;50261;51.150;4.470;2023-03-20T07:46:27;12.25;;;4.90;;
56381;SDS011;50261;51.150;4.470;2023-03-20T07:48:53;18.55;;;5.72;;
56381;SDS011;50261;51.150;4.470;2023-03-20T07:51:21;17.88;;;6.03;;
56381;SDS011;50261;51.150;4.470;2023-03-20T07:53:47;11.88;;;5.18;;
56381;SDS011;50261;51.150;4.470;2023-03-20T07:56:13;18.75;;;4.95;;
56381;SDS011;50261;51.150;4.470;2023-03-20T07:58:38;15.38;;;5.72;;
56381;SDS011;50261;51.150;4.470;2023-03-20T08:01:03;17.45;;;4.97;;
56381;SDS011;50261;51.150;4.470;2023-03-20T08:03:29;20.20;;;5.22;;
56381;SDS011;50261;51.150;4.470;2023-03-20T08:05:55;14.88;;;5.30;;
56381;SDS011;50261;51.150;4.470;2023-03-20T08:08:21;5.82;;;2.78;;
56381;SDS011;50261;51.150;4.470;2023-03-20T08:10:46;18.20;;;4.93;;
56381;SDS011;50261;51.150;4.470;2023-03-20T08:13:12;13.70;;;4.05;;
56381;SDS011;50261;51.150;4.470;2023-03-20T08:15:37;14.43;;;4.55;;
56381;SDS011;50261;51.150;4.470;2023-03-20T08:18:03;18.02;;;5.32;;
56381;SDS011;50261;51.150;4.470;2023-03-20T08:20:28;16.58;;;4.68;;
56381;SDS011;50261;51.150;4.470;2023-03-20T08:22:56;12.95;;;4.30;;
56381;SDS011;50261;51.150;4.470;2023-03-20T08:25:21;14.65;;;5.22;;
56381;SDS011;50261;51.150;4.470;2023-03-20T08:27:47;12.52;;;5.03;;
56381;SDS011;50261;51.150;4.470;2023-03-20T08:30:13;14.88;;;4.15;;
56381;SDS011;50261;51.150;4.470;2023-03-20T08:32:39;17.10;;;5.20;;
56381;SDS011;50261;51.150;4.470;2023-03-20T08:35:05;11.90;;;4.07;;
56381;SDS011;50261;51.150;4.470;2023-03-20T08:37:33;16.65;;;5.25;;
56381;SDS011;50261;51.150;4.470;2023-03-20T08:39:59;12.60;;;4.78;;
56381;SDS011;50261;51.150;4.470;2023-03-20T08:42:24;17.88;;;5.13;;
56381;SDS011;50261;51.150;4.470;2023-03-20T08:44:50;11.40;;;4.70;;
56381;SDS011;50261;51.150;4.470;2023-03-20T08:47:16;18.80;;;5.07;;
56381;SDS011;50261;51.150;4.470;2023-03-20T08:49:42;20.92;;;4.82;;
56381;SDS011;50261;51.150;4.470;2023-03-20T08:52:08;13.10;;;4.07;;
56381;SDS011;50261;51.150;4.470;2023-03-20T08:54:34;11.07;;;4.22;;
56381;SDS011;50261;51.150;4.470;2023-03-20T08:57:00;16.00;;;4.43;;
56381;SDS011;50261;51.150;4.470;2023-03-20T08:59:25;10.10;;;4.30;;
56381;SDS011;50261;51.150;4.470;2023-03-20T09:01:51;14.20;;;4.50;;
56381;SDS011;50261;51.150;4.470;2023-03-20T09:04:17;12.77;;;4.60;;
56381;SDS011;50261;51.150;4.470;2023-03-20T09:06:48;11.50;;;3.83;;
56381;SDS011;50261;51.150;4.470;2023-03-20T09:09:13;14.88;;;3.80;;
56381;SDS011;50261;51.150;4.470;2023-03-20T09:11:40;12.32;;;3.67;;
56381;SDS011;50261;51.150;4.470;2023-03-20T09:14:06;13.00;;;4.13;;
56381;SDS011;50261;51.150;4.470;2023-03-20T09:16:32;10.68;;;3.28;;
56381;SDS011;50261;51.150;4.470;2023-03-20T09:18:57;11.27;;;4.00;;
56381;SDS011;50261;51.150;4.470;2023-03-20T09:21:23;14.95;;;4.15;;
56381;SDS011;50261;51.150;4.470;2023-03-20T09:23:49;10.77;;;3.67;;
56381;SDS011;50261;51.150;4.470;2023-03-20T09:26:15;14.18;;;3.67;;
56381;SDS011;50261;51.150;4.470;2023-03-20T09:28:41;13.40;;;3.70;;
56381;SDS011;50261;51.150;4.470;2023-03-20T09:31:07;14.40;;;3.95;;
56381;SDS011;50261;51.150;4.470;2023-03-20T09:33:32;12.52;;;3.95;;
56381;SDS011;50261;51.150;4.470;2023-03-20T09:35:58;16.02;;;3.40;;
56381;SDS011;50261;51.150;4.470;2023-03-20T09:38:24;17.80;;;3.83;;
56381;SDS011;50261;51.150;4.470;2023-03-20T09:40:51;12.40;;;4.18;;
56381;SDS011;50261;51.150;4.470;2023-03-20T09:48:48;11.07;;;3.50;;
56381;SDS011;50261;51.150;4.470;2023-03-20T09:54:23;11.70;;;3.97;;
56381;SDS011;50261;51.150;4.470;2023-03-20T09:56:50;15.73;;;3.88;;
56381;SDS011;50261;51.150;4.470;2023-03-20T09:59:16;15.82;;;4.28;;
56381;SDS011;50261;51.150;4.470;2023-03-20T10:01:47;10.93;;;3.75;;
56381;SDS011;50261;51.150;4.470;2023-03-20T10:04:15;11.80;;;3.55;;
56381;SDS011;50261;51.150;4.470;2023-03-20T10:06:41;13.70;;;3.17;;
56381;SDS011;50261;51.150;4.470;2023-03-20T10:09:16;13.75;;;3.22;;
56381;SDS011;50261;51.150;4.470;2023-03-20T10:17:17;12.10;;;3.58;;
56381;SDS011;50261;51.150;4.470;2023-03-20T10:19:43;13.45;;;3.78;;
56381;SDS011;50261;51.150;4.470;2023-03-20T10:22:25;12.15;;;3.70;;
56381;SDS011;50261;51.150;4.470;2023-03-20T10:27:45;16.00;;;3.53;;
56381;SDS011;50261;51.150;4.470;2023-03-20T10:38:16;10.13;;;2.92;;
56381;SDS011;50261;51.150;4.470;2023-03-20T10:40:46;20.63;;;4.55;;
56381;SDS011;50261;51.150;4.470;2023-03-20T10:45:45;13.23;;;3.70;;
56381;SDS011;50261;51.150;4.470;2023-03-20T10:48:16;14.50;;;3.42;;
56381;SDS011;50261;51.150;4.470;2023-03-20T10:50:46;19.02;;;3.88;;
56381;SDS011;50261;51.150;4.470;2023-03-20T10:53:18;12.13;;;4.18;;
56381;SDS011;50261;51.150;4.470;2023-03-20T10:55:45;16.25;;;4.78;;
56381;SDS011;50261;51.150;4.470;2023-03-20T10:58:18;14.65;;;4.47;;
56381;SDS011;50261;51.150;4.470;2023-03-20T11:00:46;17.95;;;4.40;;
56381;SDS011;50261;51.150;4.470;2023-03-20T11:03:15;11.82;;;4.03;;
56381;SDS011;50261;51.150;4.470;2023-03-20T11:05:42;12.85;;;3.53;;
56381;SDS011;50261;51.150;4.470;2023-03-20T11:08:10;11.60;;;3.33;;
56381;SDS011;50261;51.150;4.470;2023-03-20T11:10:38;9.23;;;3.10;;
56381;SDS011;50261;51.150;4.470;2023-03-20T11:13:24;9.82;;;3.78;;
56381;SDS011;50261;51.150;4.470;2023-03-20T11:15:51;11.98;;;3.78;;
56381;SDS011;50261;51.150;4.470;2023-03-20T11:18:17;13.30;;;4.47;;
56381;SDS011;50261;51.150;4.470;2023-03-20T11:20:55;15.98;;;4.40;;
56381;SDS011;50261;51.150;4.470;2023-03-20T11:23:26;12.43;;;3.17;;
56381;SDS011;50261;51.150;4.470;2023-03-20T11:25:57;12.45;;;4.13;;
56381;SDS011;50261;51.150;4.470;2023-03-20T11:28:33;8.65;;;3.70;;
56381;SDS011;50261;51.150;4.470;2023-03-20T11:31:06;12.32;;;4.15;;
56381;SDS011;50261;51.150;4.470;2023-03-20T11:33:42;19.73;;;4.72;;
56381;SDS011;50261;51.150;4.470;2023-03-20T11:36:24;14.80;;;4.35;;
56381;SDS011;50261;51.150;4.470;2023-03-20T11:38:50;12.82;;;3.90;;
56381;SDS011;50261;51.150;4.470;2023-03-20T11:41:18;14.32;;;4.55;;
56381;SDS011;50261;51.150;4.470;2023-03-20T11:43:44;10.35;;;4.32;;
56381;SDS011;50261;51.150;4.470;2023-03-20T11:46:11;10.68;;;4.35;;
56381;SDS011;50261;51.150;4.470;2023-03-20T11:48:41;16.52;;;4.50;;
56381;SDS011;50261;51.150;4.470;2023-03-20T11:51:08;13.32;;;4.05;;
56381;SDS011;50261;51.150;4.470;2023-03-20T11:53:38;6.20;;;2.95;;
56381;SDS011;50261;51.150;4.470;2023-03-20T11:56:05;8.95;;;3.15;;
56381;SDS011;50261;51.150;4.470;2023-03-20T11:58:33;10.55;;;3.60;;
56381;SDS011;50261;51.150;4.470;2023-03-20T12:01:00;13.13;;;4.13;;
56381;SDS011;50261;51.150;4.470;2023-03-20T12:03:38;16.15;;;3.90;;
56381;SDS011;50261;51.150;4.470;2023-03-20T12:06:06;8.50;;;3.30;;
56381;SDS011;50261;51.150;4.470;2023-03-20T12:08:33;19.83;;;3.92;;
56381;SDS011;50261;51.150;4.470;2023-03-20T12:11:04;10.68;;;2.97;;
56381;SDS011;50261;51.150;4.470;2023-03-20T12:13:31;10.10;;;3.53;;
56381;SDS011;50261;51.150;4.470;2023-03-20T12:16:03;10.15;;;2.90;;
56381;SDS011;50261;51.150;4.470;2023-03-20T12:18:36;20.17;;;4.43;;
56381;SDS011;50261;51.150;4.470;2023-03-20T12:23:52;14.77;;;4.20;;
56381;SDS011;50261;51.150;4.470;2023-03-20T12:28:49;9.75;;;3.05;;
56381;SDS011;50261;51.150;4.470;2023-03-20T12:31:25;16.33;;;4.22;;
56381;SDS011;50261;51.150;4.470;2023-03-20T12:34:02;14.27;;;3.70;;
56381;SDS011;50261;51.150;4.470;2023-03-20T12:36:37;8.30;;;3.50;;
56381;SDS011;50261;51.150;4.470;2023-03-20T12:49:30;13.13;;;4.13;;
56381;SDS011;50261;51.150;4.470;2023-03-20T12:57:13;11.27;;;3.55;;
56381;SDS011;50261;51.150;4.470;2023-03-20T13:02:28;12.77;;;4.40;;
56381;SDS011;50261;51.150;4.470;2023-03-20T13:07:39;11.23;;;3.53;;
56381;SDS011;50261;51.150;4.470;2023-03-20T13:10:15;14.45;;;3.45;;
56381;SDS011;50261;51.150;4.470;2023-03-20T13:12:59;16.15;;;4.63;;
56381;SDS011;50261;51.150;4.470;2023-03-20T13:20:29;15.90;;;4.63;;
56381;SDS011;50261;51.150;4.470;2023-03-20T13:28:14;22.25;;;4.03;;
56381;SDS011;50261;51.150;4.470;2023-03-20T13:38:13;10.20;;;4.03;;
56381;SDS011;50261;51.150;4.470;2023-03-20T13:40:42;7.63;;;2.88;;
56381;SDS011;50261;51.150;4.470;2023-03-20T13:43:27;15.05;;;3.65;;
56381;SDS011;50261;51.150;4.470;2023-03-20T13:46:18;10.98;;;3.90;;
56381;SDS011;50261;51.150;4.470;2023-03-20T13:48:42;13.00;;;4.28;;
56381;SDS011;50261;51.150;4.470;2023-03-20T13:56:30;19.15;;;4.93;;
56381;SDS011;50261;51.150;4.470;2023-03-20T14:01:50;19.20;;;5.05;;
56381;SDS011;50261;51.150;4.470;2023-03-20T14:04:20;13.07;;;4.65;;
56381;SDS011;50261;51.150;4.470;2023-03-20T14:06:48;12.25;;;3.38;;
56381;SDS011;50261;51.150;4.470;2023-03-20T14:11:51;15.07;;;5.50;;
56381;SDS011;50261;51.150;4.470;2023-03-20T14:14:19;9.85;;;4.22;;
56381;SDS011;50261;51.150;4.470;2023-03-20T14:16:58;12.15;;;4.60;;
56381;SDS011;50261;51.150;4.470;2023-03-20T14:19:24;15.05;;;5.20;;
56381;SDS011;50261;51.150;4.470;2023-03-20T14:21:53;18.70;;;5.28;;
56381;SDS011;50261;51.150;4.470;2023-03-20T14:24:20;6.25;;;3.00;;
56381;SDS011;50261;51.150;4.470;2023-03-20T14:26:47;15.93;;;4.97;;
56381;SDS011;50261;51.150;4.470;2023-03-20T14:31:40;14.25;;;5.47;;
56381;SDS011;50261;51.150;4.470;2023-03-20T14:34:44;16.70;;;5.18;;
56381;SDS011;50261;51.150;4.470;2023-03-20T14:37:02;9.80;;;4.30;;
56381;SDS011;50261;51.150;4.470;2023-03-20T14:39:33;14.05;;;5.30;;
56381;SDS011;50261;51.150;4.470;2023-03-20T14:47:00;15.10;;;6.28;;
56381;SDS011;50261;51.150;4.470;2023-03-20T14:49:44;15.85;;;5.55;;
56381;SDS011;50261;51.150;4.470;2023-03-20T14:55:12;13.32;;;5.00;;
56381;SDS011;50261;51.150;4.470;2023-03-20T14:57:38;12.20;;;4.88;;
56381;SDS011;50261;51.150;4.470;2023-03-20T15:00:04;17.45;;;6.70;;
56381;SDS011;50261;51.150;4.470;2023-03-20T15:02:35;20.88;;;6.18;;
56381;SDS011;50261;51.150;4.470;2023-03-20T15:05:01;17.23;;;6.15;;
56381;SDS011;50261;51.150;4.470;2023-03-20T15:07:28;22.67;;;7.90;;
56381;SDS011;50261;51.150;4.470;2023-03-20T15:09:56;21.70;;;7.35;;
56381;SDS011;50261;51.150;4.470;2023-03-20T15:12:25;19.23;;;6.70;;
56381;SDS011;50261;51.150;4.470;2023-03-20T15:17:18;17.67;;;7.20;;
56381;SDS011;50261;51.150;4.470;2023-03-20T15:19:45;22.38;;;4.90;;
56381;SDS011;50261;51.150;4.470;2023-03-20T15:22:14;17.00;;;7.68;;
56381;SDS011;50261;51.150;4.470;2023-03-20T15:24:41;20.63;;;7.47;;
56381;SDS011;50261;51.150;4.470;2023-03-20T15:27:10;13.93;;;5.65;;
56381;SDS011;50261;51.150;4.470;2023-03-20T15:29:36;17.25;;;6.05;;
56381;SDS011;50261;51.150;4.470;2023-03-20T15:32:02;13.75;;;5.50;;
56381;SDS011;50261;51.150;4.470;2023-03-20T15:34:30;18.92;;;6.97;;
56381;SDS011;50261;51.150;4.470;2023-03-20T15:36:57;24.48;;;6.72;;
56381;SDS011;50261;51.150;4.470;2023-03-20T15:39:27;20.17;;;6.78;;
56381;SDS011;50261;51.150;4.470;2023-03-20T15:42:03;21.30;;;7.53;;
56381;SDS011;50261;51.150;4.470;2023-03-20T15:44:36;16.98;;;6.05;;
56381;SDS011;50261;51.150;4.470;2023-03-20T15:47:06;22.00;;;6.83;;
56381;SDS011;50261;51.150;4.470;2023-03-20T15:49:36;19.52;;;5.18;;
56381;SDS011;50261;51.150;4.470;2023-03-20T15:52:23;16.08;;;6.15;;
56381;SDS011;50261;51.150;4.470;2023-03-20T15:54:50;19.33;;;7.18;;
56381;SDS011;50261;51.150;4.470;2023-03-20T15:57:20;12.07;;;5.72;;
56381;SDS011;50261;51.150;4.470;2023-03-20T15:59:49;17.63;;;6.22;;
56381;SDS011;50261;51.150;4.470;2023-03-20T16:02:15;15.77;;;5.90;;
56381;SDS011;50261;51.150;4.470;2023-03-20T16:04:48;18.08;;;6.20;;
56381;SDS011;50261;51.150;4.470;2023-03-20T16:07:31;17.90;;;5.70;;
56381;SDS011;50261;51.150;4.470;2023-03-20T16:09:57;15.55;;;5.13;;
56381;SDS011;50261;51.150;4.470;2023-03-20T16:12:24;17.15;;;6.43;;
56381;SDS011;50261;51.150;4.470;2023-03-20T16:14:53;22.15;;;6.00;;
56381;SDS011;50261;51.150;4.470;2023-03-20T16:17:20;14.38;;;5.47;;
56381;SDS011;50261;51.150;4.470;2023-03-20T16:19:47;17.55;;;5.88;;
56381;SDS011;50261;51.150;4.470;2023-03-20T16:22:20;14.20;;;5.22;;
56381;SDS011;50261;51.150;4.470;2023-03-20T16:24:47;12.98;;;5.53;;
56381;SDS011;50261;51.150;4.470;2023-03-20T16:27:18;18.48;;;5.72;;
56381;SDS011;50261;51.150;4.470;2023-03-20T16:29:46;18.65;;;5.50;;
56381;SDS011;50261;51.150;4.470;2023-03-20T16:34:53;11.48;;;5.63;;
56381;SDS011;50261;51.150;4.470;2023-03-20T16:37:22;19.85;;;6.38;;
56381;SDS011;50261;51.150;4.470;2023-03-20T16:40:00;14.73;;;7.10;;
56381;SDS011;50261;51.150;4.470;2023-03-20T16:42:26;16.40;;;6.15;;
56381;SDS011;50261;51.150;4.470;2023-03-20T16:44:55;16.58;;;5.78;;
56381;SDS011;50261;51.150;4.470;2023-03-20T16:47:34;11.80;;;4.70;;
56381;SDS011;50261;51.150;4.470;2023-03-20T16:52:47;21.38;;;6.60;;
56381;SDS011;50261;51.150;4.470;2023-03-20T16:55:15;17.70;;;6.38;;
56381;SDS011;50261;51.150;4.470;2023-03-20T16:57:43;16.60;;;6.43;;
56381;SDS011;50261;51.150;4.470;2023-03-20T17:00:21;27.38;;;7.28;;
56381;SDS011;50261;51.150;4.470;2023-03-20T17:02:49;15.50;;;6.43;;
56381;SDS011;50261;51.150;4.470;2023-03-20T17:05:18;14.77;;;5.88;;
56381;SDS011;50261;51.150;4.470;2023-03-20T17:07:45;13.13;;;6.97;;
56381;SDS011;50261;51.150;4.470;2023-03-20T17:12:43;11.95;;;4.45;;